Time;durP1;ratioP1;P1;durP2;ratioP2;P2;SDS_P1;SDS_P2;PMS_P1;PMS_P2;Temp;Humidity;BMP_temperature;BMP_pressure;BME280_temperature;BME280_humidity;BME280_pressure;Samples;Min_cycle;Max_cycle;Signal;HPM_P1;HPM_P2
2022/05/09 05:15:21;;;;;;;;;;;;;;;7.53;69.37;101603.16;5025662;28;1261;-89
2022/05/09 05:17:46;;;;;;;;;;;;;;;7.56;69.64;101605.44;5003326;28;1575;-91
2022/05/09 05:20:32;;;;;;;;;;;;;;;7.66;70.09;101602.94;4992373;28;1040;-90
2022/05/09 05:22:57;;;;;;;;;;;;;;;7.76;70.59;101600.47;4997906;28;1237;-89
2022/05/09 05:25:28;;;;;;;;;;;;;;;7.88;71.17;101598.59;4997429;28;1194;-89
2022/05/09 05:27:53;;;;;;;;;;;;;;;7.98;71.34;101607.03;4996806;28;1894;-89
2022/05/09 05:30:20;;;;;;;;;;;;;;;8.06;71.65;101597.66;4985669;28;1295;-90
2022/05/09 05:32:46;;;;;;;;;;;;;;;8.13;71.60;101603.00;4981099;28;1311;-91
2022/05/09 05:35:13;;;;;;;;;;;;;;;8.12;72.00;101599.44;4997314;28;1213;-90
2022/05/09 05:37:43;;;;;;;;;;;;;;;8.17;72.40;101598.69;4997207;28;1474;-91
2022/05/09 05:40:09;;;;;;;;;;;;;;;8.26;71.29;101600.00;4997298;28;1213;-90
2022/05/09 05:42:37;;;;;;;;;;;;;;;8.24;72.35;101599.44;5010201;28;1224;-90
2022/05/09 05:45:02;;;;;;;;;;;;;;;8.43;72.12;101598.25;4995060;28;1035;-90
2022/05/09 05:47:27;;;;;;;;;;;;;;;8.57;71.71;101587.91;4977496;28;1999;-91
2022/05/09 05:49:52;;;;;;;;;;;;;;;8.55;70.88;101598.22;4995146;28;1768;-91
2022/05/09 05:52:17;;;;;;;;;;;;;;;8.53;70.20;101594.91;4977277;28;1347;-90
2022/05/09 05:54:45;;;;;;;;;;;;;;;8.65;70.03;101595.72;4977450;28;970;-90
2022/05/09 06:00:12;;;;;;;;;;;;;;;8.78;70.65;101594.59;4995127;28;845;-90
2022/05/09 06:02:38;;;;;;;;;;;;;;;8.90;69.44;101598.16;4977170;28;1241;-91
2022/05/09 06:05:04;;;;;;;;;;;;;;;8.87;69.38;101593.16;4977317;28;1237;-90
2022/05/09 06:07:29;;;;;;;;;;;;;;;9.02;69.67;101588.81;4978787;28;1948;-91
2022/05/09 06:09:54;;;;;;;;;;;;;;;9.01;69.10;101598.13;4997276;28;1070;-91
2022/05/09 06:12:21;;;;;;;;;;;;;;;9.00;68.78;101593.72;5010803;28;1373;-91
2022/05/09 06:15:24;;;;;;;;;;;;;;;9.16;69.19;101585.81;4976969;28;1245;-90
2022/05/09 06:17:35;;;;;;;;;;;;;;;9.23;69.18;101587.31;4979204;28;1536;-90
2022/05/09 06:20:00;;;;;;;;;;;;;;;9.29;68.78;101588.22;4991037;28;1262;-92
2022/05/09 06:22:26;;;;;;;;;;;;;;;9.34;69.05;101583.72;4977084;28;1312;-91
2022/05/09 06:24:57;;;;;;;;;;;;;;;9.45;69.14;101591.00;4977477;28;1237;-91
2022/05/09 06:27:22;;;;;;;;;;;;;;;9.56;68.22;101588.44;4977135;28;1886;-92
2022/05/09 06:29:47;;;;;;;;;;;;;;;9.57;68.66;101590.94;4996213;28;1064;-91
2022/05/09 06:32:12;;;;;;;;;;;;;;;9.62;68.72;101587.44;4996353;28;1079;-91
2022/05/09 06:34:37;;;;;;;;;;;;;;;9.67;67.84;101582.91;5012491;28;1216;-91
2022/05/09 06:37:02;;;;;;;;;;;;;;;9.73;68.40;101578.34;4996472;28;1192;-92
2022/05/09 06:39:28;;;;;;;;;;;;;;;9.82;68.06;101576.84;4996105;28;1174;-91
2022/05/09 06:41:55;;;;;;;;;;;;;;;9.72;68.08;101573.94;5013990;28;814;-91
2022/05/09 06:44:20;;;;;;;;;;;;;;;9.78;68.29;101575.72;5012619;28;1332;-91
2022/05/09 06:46:45;;;;;;;;;;;;;;;9.88;67.48;101568.47;4992010;28;1811;-91
2022/05/09 06:49:10;;;;;;;;;;;;;;;9.97;68.18;101576.25;4980221;28;1898;-91
2022/05/09 06:51:35;;;;;;;;;;;;;;;10.02;67.79;101577.19;4980620;28;1260;-91
2022/05/09 06:54:02;;;;;;;;;;;;;;;10.09;66.86;101577.00;4984995;28;1317;-91
2022/05/09 06:56:27;;;;;;;;;;;;;;;10.15;67.51;101575.97;4996958;28;1486;-91
2022/05/09 06:58:52;;;;;;;;;;;;;;;10.17;67.50;101576.56;4980938;28;1265;-92
2022/05/09 07:01:18;;;;;;;;;;;;;;;10.20;67.13;101581.56;4983641;28;931;-91
2022/05/09 07:03:44;;;;;;;;;;;;;;;10.16;68.15;101578.47;5018357;28;838;-91
2022/05/09 07:06:09;;;;;;;;;;;;;;;10.15;66.57;101576.81;4999383;28;1308;-91
2022/05/09 07:08:34;;;;;;;;;;;;;;;10.17;67.02;101563.75;5016697;28;1949;-91
2022/05/09 07:11:01;;;;;;;;;;;;;;;10.32;66.03;101570.50;4999705;28;1231;-89
2022/05/09 07:13:26;;;;;;;;;;;;;;;10.37;65.58;101568.69;5017741;28;1087;-93
2022/05/09 07:15:54;;;;;;;;;;;;;;;10.47;65.32;101568.81;5001405;28;1239;-92
2022/05/09 07:18:19;;;;;;;;;;;;;;;10.52;64.84;101574.34;4999607;28;1588;-92
2022/05/09 07:20:44;;;;;;;;;;;;;;;10.59;64.89;101571.44;4995065;28;1525;-93
2022/05/09 07:23:10;;;;;;;;;;;;;;;10.67;64.35;101572.88;4980140;28;1026;-92
2022/05/09 07:25:36;;;;;;;;;;;;;;;10.69;64.71;101566.09;4979800;28;1274;-91
2022/05/09 07:28:01;;;;;;;;;;;;;;;10.75;64.58;101569.69;4980323;28;1983;-91
2022/05/09 07:30:28;;;;;;;;;;;;;;;10.83;64.05;101569.25;4980354;28;1553;-91
2022/05/09 07:32:54;;;;;;;;;;;;;;;10.89;64.15;101569.03;4980151;28;1197;-91
2022/05/09 07:35:21;;;;;;;;;;;;;;;10.94;63.19;101558.16;4980146;28;1408;-92
2022/05/09 07:37:47;;;;;;;;;;;;;;;11.01;63.36;101560.69;4980632;28;1288;-91
2022/05/09 07:40:15;;;;;;;;;;;;;;;11.09;63.17;101565.72;4996838;28;1669;-91
2022/05/09 07:42:41;;;;;;;;;;;;;;;11.16;62.47;101569.06;5007131;28;1372;-92
2022/05/09 07:45:06;;;;;;;;;;;;;;;11.21;62.18;101560.91;4995794;28;1365;-91
2022/05/09 07:47:32;;;;;;;;;;;;;;;11.29;61.93;101563.19;4996027;28;1898;-90
2022/05/09 07:49:57;;;;;;;;;;;;;;;11.38;60.37;101560.81;4989945;28;1342;-91
2022/05/09 07:52:22;;;;;;;;;;;;;;;11.42;60.49;101564.66;4995739;28;1737;-91
2022/05/09 07:54:48;;;;;;;;;;;;;;;11.50;60.65;101564.19;5015717;28;1081;-92
2022/05/09 07:57:13;;;;;;;;;;;;;;;11.58;60.72;101565.63;5015012;28;1267;-91
2022/05/09 07:59:39;;;;;;;;;;;;;;;11.67;60.26;101553.91;4998685;28;1218;-92
2022/05/09 08:02:04;;;;;;;;;;;;;;;11.77;60.32;101546.88;4998240;28;1300;-90
2022/05/09 08:04:29;;;;;;;;;;;;;;;11.84;60.78;101551.06;5002258;28;1674;-90
2022/05/09 08:06:54;;;;;;;;;;;;;;;11.94;61.59;101547.56;4978639;28;1906;-90
2022/05/09 08:09:19;;;;;;;;;;;;;;;12.07;60.73;101550.69;4979054;28;1336;-91
2022/05/09 08:11:45;;;;;;;;;;;;;;;12.10;61.61;101547.41;4979070;28;981;-92
2022/05/09 08:14:11;;;;;;;;;;;;;;;12.15;61.01;101548.53;4978737;28;1214;-91
2022/05/09 08:16:36;;;;;;;;;;;;;;;12.24;60.08;101547.78;4978840;28;1271;-91
2022/05/09 08:19:02;;;;;;;;;;;;;;;12.34;59.43;101544.22;4977544;28;1529;-90
2022/05/09 08:21:27;;;;;;;;;;;;;;;12.41;60.00;101539.34;4995454;28;1434;-89
2022/05/09 08:23:53;;;;;;;;;;;;;;;12.44;59.09;101541.53;4978074;28;1513;-89
2022/05/09 08:26:21;;;;;;;;;;;;;;;12.50;57.97;101533.03;4985161;28;1596;-89
2022/05/09 08:28:47;;;;;;;;;;;;;;;12.58;58.24;101539.16;4997853;28;1894;-90
2022/05/09 08:31:16;;;;;;;;;;;;;;;12.70;57.07;101542.47;5014573;28;1258;-90
2022/05/09 08:33:41;;;;;;;;;;;;;;;12.77;57.05;101532.88;5014618;28;1315;-91
2022/05/09 08:36:09;;;;;;;;;;;;;;;12.84;57.17;101527.16;4987234;28;1340;-89
2022/05/09 08:38:34;;;;;;;;;;;;;;;12.92;55.11;101532.13;4977829;28;1238;-89
2022/05/09 08:41:11;;;;;;;;;;;;;;;13.09;55.05;101526.38;4977949;28;1729;-88
2022/05/09 08:43:37;;;;;;;;;;;;;;;13.18;55.68;101531.06;4977665;28;1352;-89
2022/05/09 08:46:09;;;;;;;;;;;;;;;13.25;54.91;101534.41;4977543;28;1458;-90
2022/05/09 08:49:03;;;;;;;;;;;;;;;13.26;53.70;101521.50;4977642;28;1891;-89
2022/05/09 08:51:37;;;;;;;;;;;;;;;13.28;54.36;101530.25;4973744;28;1395;-91
2022/05/09 08:54:05;;;;;;;;;;;;;;;13.39;54.64;101525.59;4987950;28;1233;-90
2022/05/09 08:56:31;;;;;;;;;;;;;;;13.41;55.73;101538.00;4983049;28;1685;-90
2022/05/09 08:58:59;;;;;;;;;;;;;;;13.59;55.12;101531.13;4977259;28;1302;-90
2022/05/09 09:01:33;;;;;;;;;;;;;;;13.55;54.87;101525.34;4993277;28;1219;-89
2022/05/09 09:04:00;;;;;;;;;;;;;;;13.61;52.87;101532.47;4996795;28;1175;-89
2022/05/09 09:06:36;;;;;;;;;;;;;;;13.96;55.15;101525.28;4996822;28;1347;-90
2022/05/09 09:09:20;;;;;;;;;;;;;;;14.03;53.01;101525.84;4990599;28;1953;-91
2022/05/09 09:11:55;;;;;;;;;;;;;;;13.91;52.69;101522.56;4977352;28;1319;-90
2022/05/09 09:14:35;;;;;;;;;;;;;;;13.97;52.57;101522.25;4977369;28;1301;-90
2022/05/09 09:17:14;;;;;;;;;;;;;;;13.98;51.94;101518.41;4977171;28;1322;-89
2022/05/09 09:19:47;;;;;;;;;;;;;;;13.99;52.90;101511.81;4975208;28;1662;-89
2022/05/09 09:22:18;;;;;;;;;;;;;;;14.16;55.40;101510.66;4996124;28;1035;-89
2022/05/09 09:24:57;;;;;;;;;;;;;;;14.32;55.01;101502.06;4976815;28;1347;-90
2022/05/09 09:27:37;;;;;;;;;;;;;;;14.40;53.38;101503.44;4993580;28;1963;-89
2022/05/09 09:30:10;;;;;;;;;;;;;;;14.53;52.30;101502.03;5000566;28;1603;-90
2022/05/09 09:32:36;;;;;;;;;;;;;;;14.91;49.43;101498.50;5011317;28;1365;-90
2022/05/09 09:35:09;;;;;;;;;;;;;;;14.71;49.96;101502.22;4981642;28;1823;-90
2022/05/09 09:37:39;;;;;;;;;;;;;;;14.61;51.73;101502.28;4987742;28;1628;-91
2022/05/09 09:40:04;;;;;;;;;;;;;;;14.76;51.46;101493.09;4982353;28;1199;-90
2022/05/09 09:42:29;;;;;;;;;;;;;;;14.81;51.70;101490.28;5013689;28;1180;-91
2022/05/09 09:44:56;;;;;;;;;;;;;;;14.84;51.01;101494.41;5001048;28;790;-91
2022/05/09 09:47:23;;;;;;;;;;;;;;;14.83;50.37;101492.75;4977509;28;1902;-90
2022/05/09 09:49:49;;;;;;;;;;;;;;;14.92;52.53;101489.13;4980393;28;1282;-91
2022/05/09 09:52:17;;;;;;;;;;;;;;;14.85;51.58;101460.22;4996500;28;1296;-91
2022/05/09 09:54:47;;;;;;;;;;;;;;;14.99;50.38;101483.28;5014172;28;877;-91
2022/05/09 09:57:17;;;;;;;;;;;;;;;15.07;48.44;101480.75;4996427;28;1244;-91
2022/05/09 09:59:43;;;;;;;;;;;;;;;15.09;49.75;101481.28;4996101;28;1221;-91
2022/05/09 10:02:21;;;;;;;;;;;;;;;15.18;49.12;101469.66;4997561;28;1203;-91
2022/05/09 10:04:46;;;;;;;;;;;;;;;15.18;51.25;101470.47;4979457;28;1355;-92
2022/05/09 10:07:25;;;;;;;;;;;;;;;15.43;48.42;101464.75;4976476;28;1894;-90
2022/05/09 10:10:10;;;;;;;;;;;;;;;15.40;49.77;101457.03;4986380;28;1173;-91
2022/05/09 10:12:36;;;;;;;;;;;;;;;15.49;50.80;101457.22;4996663;28;1284;-91
2022/05/09 10:15:02;;;;;;;;;;;;;;;15.61;48.93;101454.13;4990247;28;1335;-91
2022/05/09 10:17:29;;;;;;;;;;;;;;;15.83;48.26;101454.44;4997026;28;1488;-91
2022/05/09 10:19:55;;;;;;;;;;;;;;;15.75;49.35;101453.16;4997291;28;1360;-92
2022/05/09 10:25:11;;;;;;;;;;;;;;;15.71;50.88;101441.06;4992773;28;1481;-90
2022/05/09 10:27:37;;;;;;;;;;;;;;;15.76;51.26;101435.47;4988347;28;1965;-92
2022/05/09 10:30:07;;;;;;;;;;;;;;;15.83;51.10;101438.69;4986421;28;1529;-91
2022/05/09 10:32:41;;;;;;;;;;;;;;;15.99;50.80;101430.28;4977312;28;1390;-91
2022/05/09 10:35:18;;;;;;;;;;;;;;;15.97;50.02;101426.97;4962750;28;1498;-90
2022/05/09 10:37:48;;;;;;;;;;;;;;;15.98;52.06;101423.94;4987848;28;1358;-89
2022/05/09 10:40:13;;;;;;;;;;;;;;;16.15;53.09;101424.28;4979566;28;1480;-89
2022/05/09 10:42:41;;;;;;;;;;;;;;;16.32;51.95;101425.72;4979986;28;1298;-90
2022/05/09 10:45:12;;;;;;;;;;;;;;;16.38;48.99;101421.75;4981039;28;1787;-91
2022/05/09 10:48:00;;;;;;;;;;;;;;;16.31;49.69;101424.06;4980324;28;1974;-90
2022/05/09 10:50:28;;;;;;;;;;;;;;;16.26;51.07;101413.88;4975971;28;1279;-89
2022/05/09 10:53:06;;;;;;;;;;;;;;;16.38;50.16;101421.75;5011386;28;1373;-89
2022/05/09 10:55:35;;;;;;;;;;;;;;;16.29;48.87;101418.84;4988187;28;1568;-90
2022/05/09 10:58:03;;;;;;;;;;;;;;;16.33;51.79;101411.63;4987481;28;1346;-90
2022/05/09 11:00:31;;;;;;;;;;;;;;;16.35;49.36;101409.34;4997520;28;821;-90
2022/05/09 11:03:00;;;;;;;;;;;;;;;16.36;51.14;101399.13;4980638;28;1229;-89
2022/05/09 11:05:27;;;;;;;;;;;;;;;16.48;51.62;101397.56;5013966;28;1076;-91
2022/05/09 11:07:59;;;;;;;;;;;;;;;16.60;49.87;101399.88;4993588;28;1890;-91
2022/05/09 11:10:37;;;;;;;;;;;;;;;16.74;48.90;101395.28;5000098;28;1220;-90
2022/05/09 11:13:08;;;;;;;;;;;;;;;16.91;49.45;101400.28;4999669;28;1320;-91
2022/05/09 11:15:36;;;;;;;;;;;;;;;16.81;49.64;101398.50;4987660;28;1592;-90
2022/05/09 11:18:11;;;;;;;;;;;;;;;16.72;50.70;101392.00;4999297;28;1313;-91
2022/05/09 11:20:55;;;;;;;;;;;;;;;16.74;50.88;101389.75;4991383;28;1325;-90
2022/05/09 11:23:24;;;;;;;;;;;;;;;16.89;49.78;101377.63;4979834;28;1205;-91
2022/05/09 11:26:01;;;;;;;;;;;;;;;16.92;49.96;101379.81;4972408;28;1548;-91
2022/05/09 11:28:49;;;;;;;;;;;;;;;16.93;48.85;101387.78;4960868;28;1964;-91
2022/05/09 11:31:28;;;;;;;;;;;;;;;17.05;46.91;101378.19;4960399;28;1193;-91
2022/05/09 11:34:20;;;;;;;;;;;;;;;17.12;48.40;101381.38;4960460;28;1418;-91
2022/05/09 11:36:59;;;;;;;;;;;;;;;17.12;48.75;101376.69;4982408;28;1388;-91
2022/05/09 11:39:35;;;;;;;;;;;;;;;17.23;49.46;101367.09;5000090;28;1229;-92
2022/05/09 11:43:27;;;;;;;;;;;;;;;17.26;48.60;101368.44;5000328;28;1217;-91
2022/05/09 11:44:47;;;;;;;;;;;;;;;17.33;49.40;101366.91;5016443;28;1064;-92
2022/05/09 11:47:36;;;;;;;;;;;;;;;17.44;47.45;101372.25;4998675;28;1898;-92
2022/05/09 11:50:20;;;;;;;;;;;;;;;17.42;48.13;101372.56;5006903;28;1331;-91
2022/05/09 11:52:46;;;;;;;;;;;;;;;17.41;46.21;101359.84;4978720;28;1308;-91
2022/05/09 11:55:13;;;;;;;;;;;;;;;17.46;48.08;101356.16;4978638;28;1270;-91
2022/05/09 11:57:40;;;;;;;;;;;;;;;17.61;51.13;101362.19;4979817;28;1368;-92
2022/05/09 12:00:11;;;;;;;;;;;;;;;17.72;49.63;101354.56;4979600;28;1310;-91
2022/05/09 12:02:42;;;;;;;;;;;;;;;17.64;49.18;101350.56;4978994;28;1345;-91
2022/05/09 12:05:26;;;;;;;;;;;;;;;17.68;46.83;101348.84;4978076;28;1388;-90
2022/05/09 12:07:55;;;;;;;;;;;;;;;17.84;48.63;101341.03;4995441;28;1960;-91
2022/05/09 12:10:28;;;;;;;;;;;;;;;17.85;45.88;101333.53;4979203;28;1557;-91
2022/05/09 12:12:56;;;;;;;;;;;;;;;17.90;46.92;101338.97;4979085;28;1596;-90
2022/05/09 12:15:21;;;;;;;;;;;;;;;17.94;48.71;101342.78;4975616;28;1812;-89
2022/05/09 12:18:00;;;;;;;;;;;;;;;18.05;49.48;101341.41;4959135;28;1423;-89
2022/05/09 12:20:29;;;;;;;;;;;;;;;18.15;46.15;101336.47;4970303;28;1334;-89
2022/05/09 12:22:56;;;;;;;;;;;;;;;18.24;45.58;101339.31;4995665;28;1366;-89
2022/05/09 12:25:45;;;;;;;;;;;;;;;18.27;48.30;101337.88;4977628;28;1348;-90
2022/05/09 12:28:16;;;;;;;;;;;;;;;18.29;47.12;101328.09;4987580;28;1970;-90
2022/05/09 12:30:47;;;;;;;;;;;;;;;18.28;48.29;101329.25;4988987;28;1215;-91
2022/05/09 12:33:12;;;;;;;;;;;;;;;18.37;47.51;101330.13;4997752;28;1267;-90
2022/05/09 12:35:37;;;;;;;;;;;;;;;18.65;47.12;101330.06;5015241;28;877;-90
2022/05/09 12:38:02;;;;;;;;;;;;;;;18.61;47.34;101318.81;4997588;28;1305;-91
2022/05/09 12:40:29;;;;;;;;;;;;;;;18.66;45.59;101313.13;4969193;28;1454;-90
2022/05/09 12:42:57;;;;;;;;;;;;;;;18.64;46.65;101317.34;4980065;28;1694;-90
2022/05/09 12:45:23;;;;;;;;;;;;;;;18.76;46.60;101309.28;4977592;28;1200;-90
2022/05/09 12:47:49;;;;;;;;;;;;;;;18.85;47.90;101312.94;4969556;28;1902;-90
2022/05/09 12:50:21;;;;;;;;;;;;;;;19.04;46.54;101302.47;4995195;28;1680;-90
2022/05/09 12:52:52;;;;;;;;;;;;;;;19.04;43.33;101305.22;4977836;28;1165;-90
2022/05/09 12:58:18;;;;;;;;;;;;;;;19.02;42.64;101301.94;4989192;28;1266;-90
2022/05/09 13:00:43;;;;;;;;;;;;;;;19.17;41.04;101293.22;4974946;28;1341;-91
2022/05/09 13:03:08;;;;;;;;;;;;;;;19.22;43.13;101303.38;4958779;28;902;-92
2022/05/09 13:05:35;;;;;;;;;;;;;;;19.27;42.33;101292.94;4958422;28;1151;-88
2022/05/09 13:08:01;;;;;;;;;;;;;;;19.32;43.96;101297.50;4958478;28;1902;-91
2022/05/09 13:10:28;;;;;;;;;;;;;;;19.44;43.45;101283.84;4958199;28;1261;-90
2022/05/09 13:13:01;;;;;;;;;;;;;;;19.66;42.98;101285.75;4999374;28;1521;-89
2022/05/09 13:15:27;;;;;;;;;;;;;;;19.90;43.04;101283.38;4996681;28;1253;-90
2022/05/09 13:18:05;;;;;;;;;;;;;;;20.44;42.56;101274.75;5012998;28;1273;-90
2022/05/09 13:20:34;;;;;;;;;;;;;;;25.13;33.71;101266.31;4996588;28;1441;-89
2022/05/09 13:23:01;;;;;;;;;;;;;;;29.14;27.93;101261.56;4996594;28;1348;-91
2022/05/09 13:25:26;;;;;;;;;;;;;;;31.57;25.41;101258.28;4990361;28;1325;-90
2022/05/09 13:27:53;;;;;;;;;;;;;;;32.86;22.07;101236.84;5009788;28;1898;-89
2022/05/09 13:30:19;;;;;;;;;;;;;;;33.13;21.28;101244.75;4977270;28;1245;-89
2022/05/09 13:32:51;;;;;;;;;;;;;;;33.79;21.86;101239.75;4994515;28;835;-89
2022/05/09 13:35:25;;;;;;;;;;;;;;;34.15;20.84;101229.59;4977984;28;1495;-90
2022/05/09 13:37:52;;;;;;;;;;;;;;;34.47;21.53;101234.06;4983612;28;1769;-91
2022/05/09 13:40:18;;;;;;;;;;;;;;;33.63;20.17;101230.97;4994753;28;1214;-91
2022/05/09 13:42:47;;;;;;;;;;;;;;;33.89;19.06;101238.81;4968650;28;1571;-90
2022/05/09 13:45:12;;;;;;;;;;;;;;;34.42;20.40;101224.00;4990938;28;1238;-88
2022/05/09 13:47:40;;;;;;;;;;;;;;;35.03;19.73;101218.25;4971793;28;1975;-89
2022/05/09 13:50:06;;;;;;;;;;;;;;;35.12;18.94;101221.34;4959353;28;1270;-89
2022/05/09 13:52:33;;;;;;;;;;;;;;;35.28;18.21;101223.56;4976756;28;1186;-88
2022/05/09 13:54:59;;;;;;;;;;;;;;;33.36;19.99;101211.75;4976836;28;1141;-89
2022/05/09 13:57:32;;;;;;;;;;;;;;;32.11;21.25;101210.06;4981124;28;1292;-88
2022/05/09 14:00:07;;;;;;;;;;;;;;;30.12;24.55;101203.44;4963037;28;1339;-89
2022/05/09 14:02:33;;;;;;;;;;;;;;;30.48;24.30;101211.66;4998669;28;1246;-90
2022/05/09 14:05:10;;;;;;;;;;;;;;;30.61;22.95;101205.69;5000392;28;1404;-89
2022/05/09 14:07:41;;;;;;;;;;;;;;;30.08;24.91;101200.63;4984525;28;1964;-90
2022/05/09 14:10:24;;;;;;;;;;;;;;;29.64;24.56;101201.56;4981233;28;1612;-89
2022/05/09 14:12:50;;;;;;;;;;;;;;;29.00;24.21;101185.34;4980537;28;1521;-91
2022/05/09 14:15:19;;;;;;;;;;;;;;;29.53;24.09;101183.75;4980990;28;1246;-92
2022/05/09 14:17:46;;;;;;;;;;;;;;;28.83;25.53;101183.97;4980453;28;1469;-90
2022/05/09 14:20:21;;;;;;;;;;;;;;;28.89;24.53;101185.25;4968363;28;1639;-91
2022/05/09 14:22:46;;;;;;;;;;;;;;;29.40;24.96;101179.66;4994021;28;1363;-91
2022/05/09 14:30:43;;;;;;;;;;;;;;;29.25;24.57;101177.91;5016010;28;1163;-92
2022/05/09 14:33:27;;;;;;;;;;;;;;;28.01;26.68;101177.38;4999788;28;1292;-91
2022/05/09 14:35:53;;;;;;;;;;;;;;;28.18;26.39;101164.72;4998893;23;1708;-91
2022/05/09 14:38:25;;;;;;;;;;;;;;;28.42;26.67;101169.03;4983620;28;874;-91
2022/05/09 14:40:51;;;;;;;;;;;;;;;28.46;27.31;101161.44;4961951;28;1396;-89
2022/05/09 14:43:29;;;;;;;;;;;;;;;28.32;25.90;101156.47;4993659;28;984;-90
2022/05/09 14:46:02;;;;;;;;;;;;;;;29.25;24.44;101149.69;4958694;29;1190;-89
2022/05/09 14:48:30;;;;;;;;;;;;;;;28.87;25.45;101157.44;4956049;28;1914;-89
2022/05/09 14:50:57;;;;;;;;;;;;;;;28.32;25.77;101153.66;4974739;28;1542;-91
2022/05/09 14:53:28;;;;;;;;;;;;;;;28.81;25.90;101159.00;4965859;28;1357;-90
2022/05/09 14:58:49;;;;;;;;;;;;;;;29.60;25.58;101143.50;5014968;28;1115;-91
2022/05/09 15:01:21;;;;;;;;;;;;;;;30.45;24.50;101143.88;4997150;28;1430;-91
2022/05/09 15:03:48;;;;;;;;;;;;;;;29.78;24.33;101143.56;4970451;28;1750;-90
2022/05/09 15:06:14;;;;;;;;;;;;;;;28.54;25.84;101135.78;4960893;28;1461;-91
2022/05/09 15:08:40;;;;;;;;;;;;;;;27.72;27.11;101144.44;4998740;28;1902;-92
2022/05/09 15:11:13;;;;;;;;;;;;;;;27.66;26.31;101137.50;4980706;28;1599;-92
2022/05/09 15:13:38;;;;;;;;;;;;;;;27.14;27.12;101136.31;5012521;28;1478;-92
2022/05/09 15:16:07;;;;;;;;;;;;;;;27.09;28.26;101131.03;4998554;28;1375;-91
2022/05/09 15:18:32;;;;;;;;;;;;;;;27.19;28.00;101130.38;4994248;28;1403;-91
2022/05/09 15:21:00;;;;;;;;;;;;;;;27.30;28.28;101127.75;4979367;28;1289;-91
2022/05/09 15:23:25;;;;;;;;;;;;;;;27.52;27.80;101123.22;4961304;28;1223;-91
2022/05/09 15:25:52;;;;;;;;;;;;;;;28.21;26.91;101125.38;4959935;28;1200;-91
2022/05/09 15:28:18;;;;;;;;;;;;;;;28.61;25.70;101129.38;4994186;28;1890;-91
2022/05/09 15:30:44;;;;;;;;;;;;;;;28.70;26.46;101118.63;4977757;28;1606;-91
2022/05/09 15:33:09;;;;;;;;;;;;;;;28.51;26.60;101118.81;4975753;28;1316;-91
2022/05/09 15:35:34;;;;;;;;;;;;;;;28.31;26.54;101115.44;4977153;28;1837;-91
2022/05/09 15:38:07;;;;;;;;;;;;;;;28.39;26.16;101119.13;4975825;28;1242;-91
2022/05/09 15:40:33;;;;;;;;;;;;;;;27.79;26.60;101117.22;4988861;28;1204;-91
2022/05/09 15:43:02;;;;;;;;;;;;;;;27.84;27.89;101113.22;4996200;28;876;-91
2022/05/09 15:45:27;;;;;;;;;;;;;;;27.91;27.37;101112.50;4994683;28;1363;-92
2022/05/09 15:47:52;;;;;;;;;;;;;;;27.94;27.68;101109.75;4995824;28;1890;-91
2022/05/09 15:50:19;;;;;;;;;;;;;;;27.55;27.71;101112.06;4986990;28;1439;-92
2022/05/09 15:52:48;;;;;;;;;;;;;;;27.43;28.24;101110.25;4990271;28;1463;-92
2022/05/09 15:55:18;;;;;;;;;;;;;;;27.16;28.96;101107.81;5010369;28;1369;-92
2022/05/09 15:58:07;;;;;;;;;;;;;;;27.10;29.04;101110.97;5000069;28;1372;-91
2022/05/09 16:00:53;;;;;;;;;;;;;;;26.87;29.20;101107.38;4992009;28;1857;-92
2022/05/09 16:03:27;;;;;;;;;;;;;;;26.71;29.04;101107.47;4992253;28;1404;-92
2022/05/09 16:11:31;;;;;;;;;;;;;;;26.70;29.32;101100.28;5002226;28;1378;-91
2022/05/09 16:13:58;;;;;;;;;;;;;;;26.66;28.85;101107.00;5009431;28;1393;-91
2022/05/09 16:16:25;;;;;;;;;;;;;;;26.54;29.57;101102.38;4997840;28;1645;-92
2022/05/09 16:18:51;;;;;;;;;;;;;;;26.38;30.11;101107.28;5006580;28;1531;-90
2022/05/09 16:21:17;;;;;;;;;;;;;;;26.27;30.84;101095.88;4991514;28;1462;-91
2022/05/09 16:23:56;;;;;;;;;;;;;;;26.34;29.60;101096.00;4998079;28;1165;-92
2022/05/09 16:26:24;;;;;;;;;;;;;;;26.30;29.42;101097.94;5000929;28;1735;-91
2022/05/09 16:28:49;;;;;;;;;;;;;;;26.15;30.87;101095.19;5003923;28;1890;-91
2022/05/09 16:31:20;;;;;;;;;;;;;;;25.99;31.90;101095.28;4980576;28;1541;-91
2022/05/09 16:33:46;;;;;;;;;;;;;;;26.01;30.48;101098.56;5005142;28;1419;-92
2022/05/09 16:36:11;;;;;;;;;;;;;;;26.13;29.72;101098.38;4993492;28;1600;-91
2022/05/09 16:38:36;;;;;;;;;;;;;;;25.99;29.19;101104.53;5002533;28;1174;-92
2022/05/09 16:41:01;;;;;;;;;;;;;;;25.87;29.74;101101.88;4993944;28;1468;-91
2022/05/09 16:43:29;;;;;;;;;;;;;;;25.71;29.53;101098.31;4993870;28;722;-92
2022/05/09 16:45:54;;;;;;;;;;;;;;;25.67;31.12;101099.44;5001139;28;1442;-91
2022/05/09 16:48:20;;;;;;;;;;;;;;;25.70;31.89;101095.88;4986438;28;1895;-91
2022/05/09 16:50:45;;;;;;;;;;;;;;;25.60;31.30;101066.47;4988067;28;1340;-92
2022/05/09 16:53:11;;;;;;;;;;;;;;;25.69;31.59;101085.88;4995401;28;972;-91
2022/05/09 16:55:37;;;;;;;;;;;;;;;25.60;31.25;101075.66;4978904;28;1524;-90
2022/05/09 16:58:03;;;;;;;;;;;;;;;25.70;30.32;101077.06;4974412;28;1276;-92
2022/05/09 17:00:28;;;;;;;;;;;;;;;25.57;31.82;101079.19;4961852;28;1482;-92
2022/05/09 17:02:54;;;;;;;;;;;;;;;25.54;32.20;101079.91;4977523;28;1523;-91
2022/05/09 17:05:19;;;;;;;;;;;;;;;25.52;30.64;101073.06;4969072;28;1357;-91
2022/05/09 17:07:44;;;;;;;;;;;;;;;25.53;31.61;101069.06;4995917;28;1973;-91
2022/05/09 17:10:12;;;;;;;;;;;;;;;25.58;31.94;101068.78;5001754;28;1357;-92
2022/05/09 17:12:39;;;;;;;;;;;;;;;25.49;32.26;101060.59;4989908;28;1999;-91
2022/05/09 17:15:09;;;;;;;;;;;;;;;25.51;30.99;101057.44;4989016;28;1603;-92
2022/05/09 17:17:37;;;;;;;;;;;;;;;25.57;31.09;101062.38;4992631;28;1540;-92
2022/05/09 17:20:03;;;;;;;;;;;;;;;25.80;31.59;101068.06;5004833;28;1344;-91
2022/05/09 17:22:28;;;;;;;;;;;;;;;25.55;33.04;101058.28;4962759;28;1478;-91
2022/05/09 17:24:54;;;;;;;;;;;;;;;25.45;32.80;101062.50;4973949;28;1364;-92
2022/05/09 17:27:27;;;;;;;;;;;;;;;25.30;32.68;101065.34;4990779;28;1894;-91
2022/05/09 17:29:52;;;;;;;;;;;;;;;25.45;33.17;101065.28;4990427;28;1166;-91
2022/05/09 17:32:21;;;;;;;;;;;;;;;25.29;33.49;101072.13;4997476;28;1179;-91
2022/05/09 17:34:46;;;;;;;;;;;;;;;24.80;36.55;101059.38;4989375;28;1439;-91
2022/05/09 17:37:18;;;;;;;;;;;;;;;24.80;36.14;101055.78;4957574;28;1315;-91
2022/05/09 17:39:48;;;;;;;;;;;;;;;24.99;36.81;101057.84;4973413;28;1641;-91
2022/05/09 17:42:14;;;;;;;;;;;;;;;24.89;37.59;101054.41;4990909;28;1332;-91
2022/05/09 17:44:40;;;;;;;;;;;;;;;24.92;39.02;101061.31;4976567;28;1554;-91
2022/05/09 17:47:05;;;;;;;;;;;;;;;24.73;40.50;101058.41;4992288;28;1381;-91
2022/05/09 17:49:30;;;;;;;;;;;;;;;24.77;39.82;101057.31;4972959;28;1906;-91
2022/05/09 17:51:55;;;;;;;;;;;;;;;24.48;39.39;101055.81;5002617;28;1306;-91
2022/05/09 17:54:21;;;;;;;;;;;;;;;24.25;41.95;101053.97;4996682;28;1292;-91
2022/05/09 17:56:58;;;;;;;;;;;;;;;23.78;42.56;101054.66;4993404;28;1284;-91
2022/05/09 17:59:24;;;;;;;;;;;;;;;23.63;43.53;101056.25;4992556;28;1244;-91
2022/05/09 18:01:53;;;;;;;;;;;;;;;23.43;43.88;101060.00;4993236;28;1226;-91
2022/05/09 18:04:21;;;;;;;;;;;;;;;23.28;42.56;101061.56;4977824;28;1546;-92
2022/05/09 18:06:46;;;;;;;;;;;;;;;23.07;42.12;101055.28;4984328;28;1404;-91
2022/05/09 18:09:11;;;;;;;;;;;;;;;22.98;43.11;101055.41;4992292;28;1894;-91
2022/05/09 18:12:03;;;;;;;;;;;;;;;22.44;42.60;101056.78;4994349;28;1200;-91
2022/05/09 18:14:31;;;;;;;;;;;;;;;22.20;45.23;101057.59;5010581;28;1118;-91
2022/05/09 18:16:58;;;;;;;;;;;;;;;21.88;46.04;101067.53;4997761;28;1377;-92
2022/05/09 18:19:25;;;;;;;;;;;;;;;21.93;45.83;101058.97;4966169;28;1281;-92
2022/05/09 18:21:51;;;;;;;;;;;;;;;21.92;46.49;101057.34;5003065;28;1293;-92
2022/05/09 18:24:18;;;;;;;;;;;;;;;21.97;46.29;101057.16;4986875;28;1262;-91
2022/05/09 18:26:44;;;;;;;;;;;;;;;21.80;47.24;101060.88;4993403;28;1228;-91
2022/05/09 18:29:09;;;;;;;;;;;;;;;21.51;47.61;101061.00;4977164;28;1934;-92
2022/05/09 18:31:37;;;;;;;;;;;;;;;20.09;51.56;101052.38;4992047;28;1649;-93
2022/05/09 18:34:03;;;;;;;;;;;;;;;20.46;50.32;101061.13;5010957;28;1718;-92